createdAt,value
2023-04-18T00:01:19.099Z,6.68
2023-04-18T00:03:45.791Z,6.47
2023-04-18T00:06:13.764Z,8.07
2023-04-18T00:08:40.349Z,7.22
2023-04-18T00:11:07.012Z,8.10
2023-04-18T00:13:33.493Z,7.18
2023-04-18T00:15:59.889Z,6.75
2023-04-18T00:18:27.113Z,5.70
2023-04-18T00:20:54.424Z,7.32
2023-04-18T00:23:22.254Z,5.55
2023-04-18T00:25:48.768Z,5.20
2023-04-18T00:28:15.212Z,5.57
2023-04-18T00:30:41.753Z,4.95
2023-04-18T00:33:08.872Z,4.85
2023-04-18T00:35:35.377Z,4.72
2023-04-18T00:38:01.772Z,5.07
2023-04-18T00:40:28.219Z,4.90
2023-04-18T00:42:54.694Z,5.80
2023-04-18T00:45:21.126Z,4.85
2023-04-18T00:47:47.564Z,5.90
2023-04-18T00:50:15.011Z,5.40
2023-04-18T00:52:42.218Z,5.57
2023-04-18T00:55:09.337Z,6.05
2023-04-18T00:57:36.379Z,6.95
2023-04-18T01:00:10.348Z,5.70
2023-04-18T01:02:37.700Z,7.45
2023-04-18T01:05:04.461Z,6.00
2023-04-18T01:07:33.358Z,4.88
2023-04-18T01:10:00.524Z,5.57
2023-04-18T01:12:26.984Z,7.82
2023-04-18T01:14:53.607Z,5.65
2023-04-18T01:17:20.060Z,5.13
2023-04-18T01:19:46.823Z,6.65
2023-04-18T01:22:14.636Z,6.10
2023-04-18T01:24:42.090Z,5.55
2023-04-18T01:27:12.372Z,5.07
2023-04-18T01:29:39.121Z,5.82
2023-04-18T01:32:06.502Z,5.80
2023-04-18T01:34:32.964Z,5.97
2023-04-18T01:36:59.584Z,5.22
2023-04-18T01:39:26.012Z,5.75
2023-04-18T01:41:52.569Z,5.32
2023-04-18T01:44:19.031Z,7.60
2023-04-18T01:46:45.463Z,6.07
2023-04-18T01:49:11.870Z,5.47
2023-04-18T01:51:43.063Z,6.85
2023-04-18T01:54:09.486Z,6.20
2023-04-18T01:56:35.868Z,5.72
2023-04-18T01:59:02.384Z,8.32
2023-04-18T02:01:28.837Z,7.03
2023-04-18T02:03:55.491Z,5.72
2023-04-18T02:06:22.125Z,5.25
2023-04-18T02:08:48.694Z,5.45
2023-04-18T02:11:15.096Z,5.47
2023-04-18T02:13:41.733Z,5.63
2023-04-18T02:16:12.914Z,4.93
2023-04-18T02:18:40.125Z,5.97
2023-04-18T02:21:06.729Z,5.20
2023-04-18T02:23:33.153Z,5.68
2023-04-18T02:25:59.603Z,5.55
2023-04-18T02:28:26.032Z,5.32
2023-04-18T02:30:52.408Z,5.30
2023-04-18T02:33:18.864Z,6.68
2023-04-18T02:35:45.240Z,5.30
2023-04-18T02:38:11.788Z,5.20
2023-04-18T02:40:38.192Z,5.50
2023-04-18T02:43:04.643Z,5.53
2023-04-18T02:45:31.260Z,5.18
2023-04-18T02:47:57.706Z,5.68
2023-04-18T02:50:25.073Z,6.18
2023-04-18T02:52:51.643Z,5.88
2023-04-18T02:55:18.226Z,6.30
2023-04-18T02:57:44.654Z,4.97
2023-04-18T03:00:11.849Z,4.85
2023-04-18T03:02:38.348Z,6.05
2023-04-18T03:05:05.945Z,6.10
2023-04-18T03:07:32.557Z,6.10
2023-04-18T03:09:59.868Z,5.75
2023-04-18T03:12:26.344Z,5.35
2023-04-18T03:14:52.764Z,5.22
2023-04-18T03:17:19.385Z,5.38
2023-04-18T03:19:46.522Z,5.70
2023-04-18T03:22:14.149Z,5.55
2023-04-18T03:24:40.850Z,6.15
2023-04-18T03:27:07.319Z,5.88
2023-04-18T03:29:34.001Z,5.57
2023-04-18T03:32:00.429Z,5.63
2023-04-18T03:34:27.044Z,5.90
2023-04-18T03:36:54.095Z,5.53
2023-04-18T03:39:20.555Z,5.47
2023-04-18T03:41:46.982Z,5.60
2023-04-18T03:44:13.520Z,5.78
2023-04-18T03:46:40.706Z,5.65
2023-04-18T03:49:07.172Z,5.40
2023-04-18T03:51:42.070Z,6.35
2023-04-18T03:54:08.577Z,6.18
2023-04-18T03:56:35.689Z,9.43
2023-04-18T03:59:02.057Z,7.07
2023-04-18T04:01:28.517Z,6.53
2023-04-18T04:03:55.058Z,6.50
2023-04-18T04:06:21.719Z,8.02
2023-04-18T04:08:48.173Z,7.28
2023-04-18T04:11:14.560Z,7.00
2023-04-18T04:13:40.970Z,6.75
2023-04-18T04:16:07.867Z,6.40
2023-04-18T04:18:34.373Z,8.02
2023-04-18T04:21:00.985Z,9.15
2023-04-18T04:23:27.615Z,6.65
2023-04-18T04:25:54.914Z,6.60
2023-04-18T04:28:22.933Z,6.68
2023-04-18T04:30:50.815Z,6.53
2023-04-18T04:33:20.925Z,6.43
2023-04-18T04:35:47.939Z,9.07
2023-04-18T04:38:15.284Z,9.32
2023-04-18T04:40:42.368Z,10.25
2023-04-18T04:43:12.490Z,10.43
2023-04-18T04:45:42.020Z,9.80
2023-04-18T04:48:09.492Z,9.35
2023-04-18T04:50:37.325Z,10.57
2023-04-18T04:53:07.344Z,11.52
2023-04-18T04:55:34.493Z,10.50
2023-04-18T04:58:01.016Z,10.93
2023-04-18T05:00:28.798Z,9.18
2023-04-18T05:02:56.255Z,9.50
2023-04-18T05:05:23.303Z,11.07
2023-04-18T05:07:49.733Z,10.27
2023-04-18T05:10:16.221Z,9.45
2023-04-18T05:12:42.749Z,10.93
2023-04-18T05:15:09.551Z,10.13
2023-04-18T05:17:36.014Z,9.98
2023-04-18T05:20:02.420Z,10.98
2023-04-18T05:22:28.824Z,9.38
2023-04-18T05:24:55.288Z,10.70
2023-04-18T05:27:21.907Z,11.20
2023-04-18T05:29:50.147Z,10.80
2023-04-18T05:32:16.705Z,10.75
2023-04-18T05:34:43.270Z,11.43
2023-04-18T05:37:09.830Z,10.40
2023-04-18T05:39:36.427Z,11.68
2023-04-18T05:42:03.273Z,10.45
2023-04-18T05:44:29.958Z,9.93
2023-04-18T05:46:56.365Z,11.90
2023-04-18T05:49:25.296Z,11.13
2023-04-18T05:51:52.763Z,12.27
2023-04-18T05:54:21.495Z,12.00
2023-04-18T05:56:48.235Z,11.63
2023-04-18T05:59:14.633Z,11.95
2023-04-18T06:01:41.038Z,11.13
2023-04-18T06:04:08.584Z,11.32
2023-04-18T06:06:35.896Z,11.45
2023-04-18T06:09:02.377Z,11.10
2023-04-18T06:11:28.872Z,11.90
2023-04-18T06:13:56.042Z,11.63
2023-04-18T06:16:22.596Z,12.65
2023-04-18T06:18:49.026Z,11.15
2023-04-18T06:21:15.581Z,12.68
2023-04-18T06:23:41.993Z,11.50
2023-04-18T06:26:09.193Z,11.85
2023-04-18T06:28:35.853Z,12.77
2023-04-18T06:31:02.578Z,11.90
2023-04-18T06:33:29.042Z,10.40
2023-04-18T06:35:55.752Z,11.73
2023-04-18T06:38:22.206Z,12.07
2023-04-18T06:40:48.612Z,12.75
2023-04-18T06:43:15.045Z,10.70
2023-04-18T06:45:41.633Z,11.25
2023-04-18T06:48:09.127Z,11.80
2023-04-18T06:50:35.780Z,9.25
2023-04-18T06:53:02.264Z,10.27
2023-04-18T06:55:28.745Z,10.07
2023-04-18T06:57:55.402Z,11.13
2023-04-18T07:00:22.158Z,10.98
2023-04-18T07:02:48.903Z,9.35
2023-04-18T07:05:15.513Z,9.70
2023-04-18T07:07:41.909Z,10.43
2023-04-18T07:10:09.788Z,9.73
2023-04-18T07:12:36.336Z,9.32
2023-04-18T07:15:03.795Z,9.27
2023-04-18T07:17:30.394Z,9.80
2023-04-18T07:19:56.836Z,8.77
2023-04-18T07:22:23.257Z,8.52
2023-04-18T07:24:49.674Z,8.63
2023-04-18T07:27:16.150Z,9.00
2023-04-18T07:29:42.572Z,8.55
2023-04-18T07:32:10.853Z,9.23
2023-04-18T07:34:37.492Z,8.63
2023-04-18T07:37:04.051Z,8.50
2023-04-18T07:39:35.713Z,7.75
2023-04-18T07:42:04.088Z,7.45
2023-04-18T07:44:30.646Z,6.95
2023-04-18T07:46:57.137Z,7.45
2023-04-18T07:49:23.544Z,6.97
2023-04-18T07:51:49.960Z,7.03
2023-04-18T07:54:16.830Z,6.32
2023-04-18T07:56:43.357Z,6.30
2023-04-18T07:59:09.819Z,5.70
2023-04-18T08:01:36.225Z,5.78
2023-04-18T08:04:02.771Z,4.97
2023-04-18T08:06:29.425Z,5.28
2023-04-18T08:08:55.893Z,5.53
2023-04-18T08:11:22.302Z,5.07
2023-04-18T08:13:48.726Z,5.10
2023-04-18T08:16:17.366Z,5.65
2023-04-18T08:18:44.174Z,5.10
2023-04-18T08:21:10.694Z,4.97
2023-04-18T08:23:37.132Z,5.75
2023-04-18T08:26:03.552Z,5.10
2023-04-18T08:28:30.041Z,5.45
2023-04-18T08:30:56.659Z,5.30
2023-04-18T08:33:24.029Z,6.13
2023-04-18T08:35:53.206Z,5.78
2023-04-18T08:38:19.732Z,6.05
2023-04-18T08:40:46.489Z,6.05
2023-04-18T08:43:14.852Z,6.47
2023-04-18T08:45:44.985Z,6.00
2023-04-18T08:48:13.799Z,6.28
2023-04-18T08:50:41.494Z,5.93
2023-04-18T08:53:08.477Z,6.07
2023-04-18T08:55:35.615Z,6.18
2023-04-18T08:58:03.202Z,7.50
2023-04-18T09:00:30.482Z,6.53
2023-04-18T09:02:57.604Z,6.75
2023-04-18T09:05:26.893Z,6.63
2023-04-18T09:07:54.648Z,7.60
2023-04-18T09:10:33.363Z,6.85
2023-04-18T09:13:03.284Z,6.53
2023-04-18T09:15:30.439Z,6.82
2023-04-18T09:18:02.752Z,7.60
2023-04-18T09:20:35.772Z,6.80
2023-04-18T09:23:04.271Z,6.97
2023-04-18T09:25:51.288Z,7.47
2023-04-18T09:28:29.670Z,6.78
2023-04-18T09:30:58.497Z,6.35
2023-04-18T09:33:32.957Z,7.13
2023-04-18T09:36:23.782Z,6.88
2023-04-18T09:38:55.371Z,7.45
2023-04-18T09:41:23.137Z,5.68
2023-04-18T09:43:49.614Z,7.90
2023-04-18T09:46:17.657Z,7.07
2023-04-18T09:48:44.276Z,6.88
2023-04-18T09:51:15.711Z,7.75
2023-04-18T09:53:47.648Z,7.50
2023-04-18T09:56:27.476Z,9.15
2023-04-18T09:59:03.555Z,8.07
2023-04-18T10:01:30.784Z,7.65
2023-04-18T10:03:57.827Z,7.40
2023-04-18T10:06:27.294Z,8.32
2023-04-18T10:08:55.030Z,8.45
2023-04-18T10:11:23.596Z,7.82
2023-04-18T10:13:53.560Z,8.27
2023-04-18T10:16:20.720Z,7.13
2023-04-18T10:18:49.654Z,7.68
2023-04-18T10:21:16.430Z,8.13
2023-04-18T10:23:43.055Z,6.93
2023-04-18T10:26:11.115Z,8.75
2023-04-18T10:28:57.233Z,7.63
2023-04-18T10:31:25.961Z,8.70
2023-04-18T10:34:05.700Z,8.55
2023-04-18T10:52:43.737Z,7.93
2023-04-18T10:55:15.763Z,6.43
2023-04-18T10:57:44.913Z,6.72
2023-04-18T11:00:13.889Z,8.30
2023-04-18T11:02:47.610Z,8.27
2023-04-18T11:05:19.420Z,8.98
2023-04-18T11:07:46.576Z,9.32
2023-04-18T11:10:16.143Z,9.55
2023-04-18T11:12:42.785Z,8.48
2023-04-18T11:15:11.676Z,8.73
2023-04-18T11:17:40.119Z,9.13
2023-04-18T11:20:09.237Z,7.95
2023-04-18T11:22:49.796Z,8.70
2023-04-18T11:25:17.367Z,9.23
2023-04-18T11:27:45.223Z,9.65
2023-04-18T11:30:13.106Z,8.50
2023-04-18T11:32:41.417Z,6.93
2023-04-18T11:35:12.936Z,9.25
2023-04-18T11:37:40.688Z,8.43
2023-04-18T11:40:10.150Z,7.53
2023-04-18T11:42:39.017Z,8.98
2023-04-18T11:45:13.050Z,7.35
2023-04-18T11:47:41.954Z,7.68
2023-04-18T11:50:10.996Z,9.48
2023-04-18T11:52:39.018Z,9.40
2023-04-18T11:55:18.415Z,7.35
2023-04-18T11:57:57.794Z,9.40
2023-04-18T12:00:39.508Z,9.35
2023-04-18T12:03:11.807Z,9.50
2023-04-18T12:05:40.091Z,7.60
2023-04-18T12:08:11.540Z,9.07
2023-04-18T12:10:45.262Z,8.88
2023-04-18T12:13:11.822Z,8.15
2023-04-18T12:15:40.754Z,8.65
2023-04-18T12:18:10.078Z,8.55
2023-04-18T12:20:52.314Z,9.00
2023-04-18T12:23:38.309Z,9.50
2023-04-18T12:26:07.225Z,7.80
2023-04-18T12:28:35.546Z,7.68
2023-04-18T12:31:05.346Z,8.00
2023-04-18T12:33:31.842Z,8.50
2023-04-18T12:35:58.899Z,7.95
2023-04-18T12:38:25.636Z,9.65
2023-04-18T12:40:52.467Z,8.13
2023-04-18T12:43:19.687Z,9.38
2023-04-18T12:45:47.334Z,8.27
2023-04-18T12:48:13.860Z,8.85
2023-04-18T12:50:40.437Z,8.32
2023-04-18T12:53:06.915Z,8.73
2023-04-18T12:55:33.495Z,9.13
2023-04-18T12:57:59.968Z,7.95
2023-04-18T13:00:29.246Z,8.52
2023-04-18T13:02:56.353Z,9.05
2023-04-18T13:05:27.318Z,8.15
2023-04-18T13:08:08.498Z,8.55
2023-04-18T13:10:41.591Z,9.13
2023-04-18T13:13:08.003Z,8.60
2023-04-18T13:15:34.451Z,9.00
2023-04-18T13:18:05.086Z,8.00
2023-04-18T13:20:32.124Z,8.95
2023-04-18T13:22:58.562Z,8.80
2023-04-18T13:25:25.936Z,8.63
2023-04-18T13:27:52.435Z,8.45
2023-04-18T13:30:19.109Z,8.90
2023-04-18T13:32:46.240Z,8.57
2023-04-18T13:35:12.792Z,8.98
2023-04-18T13:37:39.553Z,9.57
2023-04-18T13:40:06.925Z,8.93
2023-04-18T13:42:34.032Z,7.68
2023-04-18T13:45:00.477Z,8.77
2023-04-18T13:47:27.220Z,9.30
2023-04-18T13:49:53.803Z,9.40
2023-04-18T13:52:20.375Z,8.90
2023-04-18T13:54:47.056Z,9.88
2023-04-18T13:57:14.620Z,9.02
2023-04-18T13:59:41.344Z,8.82
2023-04-18T14:02:08.870Z,10.45
2023-04-18T14:04:36.201Z,9.52
2023-04-18T14:07:03.743Z,8.73
2023-04-18T14:09:30.279Z,9.45
2023-04-18T14:11:58.205Z,10.32
2023-04-18T14:14:24.708Z,9.38
2023-04-18T14:16:51.224Z,11.02
2023-04-18T14:19:17.895Z,11.68
2023-04-18T14:21:44.350Z,9.68
2023-04-18T14:24:11.976Z,10.38
2023-04-18T14:26:38.401Z,9.88
2023-04-18T14:29:05.105Z,10.48
2023-04-18T14:31:31.587Z,9.07
2023-04-18T14:33:58.070Z,8.32
2023-04-18T14:36:24.553Z,10.13
2023-04-18T14:38:50.985Z,10.00
2023-04-18T14:41:17.446Z,9.30
2023-04-18T14:43:43.925Z,8.93
2023-04-18T14:46:16.445Z,9.73
2023-04-18T14:48:46.267Z,8.65
2023-04-18T14:51:12.939Z,9.93
2023-04-18T14:53:39.347Z,9.88
2023-04-18T14:56:06.057Z,9.55
2023-04-18T14:58:32.471Z,9.45
2023-04-18T15:00:59.012Z,9.70
2023-04-18T15:03:25.575Z,9.00
2023-04-18T15:05:53.136Z,8.45
2023-04-18T15:08:19.662Z,10.48
2023-04-18T15:10:47.512Z,10.75
2023-04-18T15:13:13.963Z,8.43
2023-04-18T15:15:40.531Z,8.88
2023-04-18T15:18:08.309Z,8.20
2023-04-18T15:20:36.988Z,8.20
2023-04-18T15:23:03.679Z,9.23
2023-04-18T15:25:30.990Z,9.07
2023-04-18T15:27:58.376Z,9.27
2023-04-18T15:30:25.426Z,9.70
2023-04-18T15:32:52.163Z,9.07
2023-04-18T15:35:18.874Z,8.05
2023-04-18T15:37:45.375Z,7.28
2023-04-18T15:40:16.081Z,9.35
2023-04-18T15:42:43.605Z,8.45
2023-04-18T15:45:10.933Z,8.48
2023-04-18T15:47:38.732Z,8.68
2023-04-18T15:50:06.139Z,9.05
2023-04-18T15:52:32.653Z,8.13
2023-04-18T15:54:59.223Z,8.50
2023-04-18T15:57:25.688Z,8.30
2023-04-18T15:59:52.214Z,7.43
2023-04-18T16:02:18.675Z,8.48
2023-04-18T16:04:45.481Z,8.52
2023-04-18T16:07:12.122Z,7.50
2023-04-18T16:09:38.546Z,7.63
2023-04-18T16:12:05.805Z,8.52
2023-04-18T16:14:33.398Z,7.07
2023-04-18T16:16:59.933Z,7.10
2023-04-18T16:19:26.445Z,7.53
2023-04-18T16:21:52.925Z,8.00
2023-04-18T16:24:19.525Z,6.90
2023-04-18T16:26:46.012Z,6.47
2023-04-18T16:29:12.404Z,6.72
2023-04-18T16:31:38.962Z,7.03
2023-04-18T16:34:05.388Z,7.22
2023-04-18T16:36:34.412Z,6.53
2023-04-18T16:39:00.870Z,6.57
2023-04-18T16:41:27.617Z,6.10
2023-04-18T16:43:54.045Z,6.88
2023-04-18T16:46:20.626Z,6.68
2023-04-18T16:48:47.189Z,8.13
2023-04-18T16:51:16.688Z,8.13
2023-04-18T16:53:44.488Z,8.30
2023-04-18T16:56:10.952Z,7.88
2023-04-18T16:58:37.340Z,7.82
2023-04-18T17:01:03.824Z,8.55
2023-04-18T17:03:30.624Z,9.75
2023-04-18T17:05:57.311Z,9.07
2023-04-18T17:08:25.745Z,10.05
2023-04-18T17:10:52.868Z,9.55
2023-04-18T17:13:19.566Z,9.80
2023-04-18T17:15:46.227Z,10.30
2023-04-18T17:18:12.772Z,10.63
2023-04-18T17:20:39.322Z,10.18
2023-04-18T17:23:05.932Z,9.07
2023-04-18T17:25:32.389Z,9.98
2023-04-18T17:28:02.024Z,11.25
2023-04-18T17:30:29.044Z,9.65
2023-04-18T17:32:55.975Z,10.40
2023-04-18T17:35:22.728Z,10.52
2023-04-18T17:37:50.076Z,10.85
2023-04-18T17:40:16.674Z,11.60
2023-04-18T17:42:43.244Z,11.02
2023-04-18T17:45:10.054Z,11.90
2023-04-18T17:47:36.812Z,9.80
2023-04-18T17:50:07.051Z,9.95
2023-04-18T17:52:33.455Z,10.40
2023-04-18T17:55:01.534Z,9.20
2023-04-18T17:57:30.356Z,11.50
2023-04-18T17:59:56.925Z,12.23
2023-04-18T18:02:23.615Z,11.25
2023-04-18T18:04:50.365Z,11.40
2023-04-18T18:07:16.935Z,10.00
2023-04-18T18:09:43.430Z,11.80
2023-04-18T18:12:09.995Z,11.25
2023-04-18T18:14:36.533Z,12.07
2023-04-18T18:17:05.527Z,11.88
2023-04-18T18:19:32.091Z,11.48
2023-04-18T18:21:58.541Z,12.48
2023-04-18T18:24:26.763Z,11.63
2023-04-18T18:26:53.335Z,11.23
2023-04-18T18:29:19.891Z,12.35
2023-04-18T18:31:46.415Z,9.15
2023-04-18T18:34:12.916Z,10.73
2023-04-18T18:36:40.119Z,10.73
2023-04-18T18:39:06.867Z,11.63
2023-04-18T18:41:33.465Z,10.63
2023-04-18T18:44:00.196Z,12.18
2023-04-18T18:46:27.659Z,10.77
2023-04-18T18:48:54.140Z,13.82
2023-04-18T18:51:20.560Z,12.43
2023-04-18T18:53:47.034Z,13.20
2023-04-18T18:56:13.508Z,14.00
2023-04-18T18:58:40.405Z,12.30
2023-04-18T19:01:07.209Z,12.20
2023-04-18T19:03:34.678Z,12.15
2023-04-18T19:06:03.788Z,13.02
2023-04-18T19:08:30.829Z,11.25
2023-04-18T19:10:58.148Z,13.57
2023-04-18T19:13:25.085Z,13.25
2023-04-18T19:15:52.063Z,13.30
2023-04-18T19:18:21.802Z,13.25
2023-04-18T19:20:49.936Z,13.45
2023-04-18T19:25:59.815Z,12.70
2023-04-18T19:28:26.555Z,12.00
2023-04-18T19:30:53.106Z,13.90
2023-04-18T19:33:20.467Z,13.80
2023-04-18T19:35:46.869Z,13.15
2023-04-18T19:38:13.286Z,13.15
2023-04-18T19:40:39.691Z,12.45
2023-04-18T19:43:06.123Z,12.93
2023-04-18T19:45:32.690Z,12.88
2023-04-18T19:47:59.298Z,13.32
2023-04-18T19:50:25.874Z,14.80
2023-04-18T19:52:52.272Z,11.82
2023-04-18T19:55:18.680Z,13.93
2023-04-18T19:57:45.230Z,14.73
2023-04-18T20:00:13.456Z,13.65
2023-04-18T20:02:41.018Z,13.90
2023-04-18T20:05:09.186Z,13.20
2023-04-18T20:07:35.977Z,13.32
2023-04-18T20:10:02.443Z,13.48
2023-04-18T20:12:28.911Z,12.38
2023-04-18T20:14:55.882Z,13.38
2023-04-18T20:17:22.491Z,12.60
2023-04-18T20:19:49.695Z,12.90
2023-04-18T20:22:16.888Z,12.32
2023-04-18T20:24:45.002Z,13.00
2023-04-18T20:27:12.243Z,13.13
2023-04-18T20:29:38.763Z,12.52
2023-04-18T20:32:05.741Z,13.95
2023-04-18T20:34:32.529Z,13.48
2023-04-18T20:36:59.976Z,13.75
2023-04-18T20:39:26.849Z,12.68
2023-04-18T20:42:14.137Z,10.70
2023-04-18T20:44:42.927Z,12.20
2023-04-18T20:47:09.331Z,12.27
2023-04-18T20:49:36.070Z,12.98
2023-04-18T20:52:02.466Z,12.43
2023-04-18T20:54:28.861Z,12.05
2023-04-18T20:56:55.350Z,12.15
2023-04-18T20:59:25.373Z,12.43
2023-04-18T21:01:51.790Z,13.30
2023-04-18T21:04:18.466Z,12.27
2023-04-18T21:06:45.498Z,12.38
2023-04-18T21:09:11.914Z,12.30
2023-04-18T21:11:38.349Z,12.00
2023-04-18T21:14:06.606Z,12.02
2023-04-18T21:16:33.419Z,11.07
2023-04-18T21:19:00.019Z,13.07
2023-04-18T21:21:27.182Z,12.80
2023-04-18T21:23:53.579Z,12.25
2023-04-18T21:26:20.131Z,11.88
2023-04-18T21:29:00.393Z,12.52
2023-04-18T21:31:29.450Z,10.88
2023-04-18T21:33:57.889Z,11.00
2023-04-18T21:36:26.851Z,12.50
2023-04-18T21:38:58.011Z,11.13
2023-04-18T21:41:25.454Z,11.73
2023-04-18T21:43:52.193Z,12.80
2023-04-18T21:46:19.446Z,12.32
2023-04-18T21:48:46.992Z,11.60
2023-04-18T21:51:15.727Z,10.85
2023-04-18T21:53:42.703Z,10.57
2023-04-18T21:56:09.721Z,12.52
2023-04-18T21:58:36.366Z,11.75
2023-04-18T22:01:03.236Z,12.43
2023-04-18T22:03:30.059Z,10.55
2023-04-18T22:05:57.478Z,12.20
2023-04-18T22:08:25.712Z,11.75
2023-04-18T22:10:56.387Z,11.82
2023-04-18T22:15:51.342Z,12.57
2023-04-18T22:18:18.811Z,13.05
2023-04-18T22:20:46.822Z,12.23
2023-04-18T22:23:13.732Z,12.48
2023-04-18T22:25:40.530Z,11.13
2023-04-18T22:28:07.124Z,11.82
2023-04-18T22:30:33.688Z,12.52
2023-04-18T22:33:00.307Z,11.57
2023-04-18T22:35:27.101Z,10.63
2023-04-18T22:37:53.547Z,12.30
2023-04-18T22:40:20.067Z,11.88
2023-04-18T22:42:46.462Z,11.07
2023-04-18T22:45:13.627Z,11.88
2023-04-18T22:47:40.350Z,11.75
2023-04-18T22:50:07.818Z,12.00
2023-04-18T22:55:17.040Z,12.77
2023-04-18T22:57:43.721Z,12.02
2023-04-18T23:00:11.718Z,12.07
2023-04-18T23:02:38.397Z,11.32
2023-04-18T23:05:07.310Z,12.30
2023-04-18T23:07:41.333Z,13.20
2023-04-18T23:12:49.967Z,12.85
2023-04-18T23:15:16.372Z,12.70
2023-04-18T23:17:42.917Z,11.25
2023-04-18T23:20:10.754Z,12.75
2023-04-18T23:22:38.682Z,13.45
2023-04-18T23:25:05.552Z,13.98
2023-04-18T23:27:32.067Z,12.88
2023-04-18T23:29:58.630Z,13.18
2023-04-18T23:32:25.165Z,12.65
2023-04-18T23:34:51.609Z,13.02
2023-04-18T23:37:17.987Z,12.60
2023-04-18T23:39:44.371Z,11.85
2023-04-18T23:42:10.836Z,14.00
2023-04-18T23:44:37.274Z,14.48
2023-04-18T23:47:03.774Z,15.25
2023-04-18T23:49:30.207Z,12.95
2023-04-18T23:51:56.626Z,12.93
2023-04-18T23:54:23.047Z,12.73
2023-04-18T23:56:49.707Z,13.40
2023-04-18T23:59:16.228Z,12.02
